Time;durP1;ratioP1;P1;durP2;ratioP2;P2;SDS_P1;SDS_P2;PMS_P1;PMS_P2;Temp;Humidity;BMP_temperature;BMP_pressure;BME280_temperature;BME280_humidity;BME280_pressure;Samples;Min_cycle;Max_cycle;Signal;HPM_P1;HPM_P2
2023/04/23 00:00:24;;;;;;;3.25;2.58;;;18.80;99.90;;;;;;5048117;28;20029;-66
2023/04/23 00:02:53;;;;;;;4.95;2.70;;;18.90;99.90;;;;;;5046820;28;20118;-67
2023/04/23 00:05:22;;;;;;;5.57;2.85;;;19.00;99.90;;;;;;5047657;28;20461;-67
2023/04/23 00:07:49;;;;;;;7.03;2.72;;;19.20;99.90;;;;;;5049324;28;20025;-66
2023/04/23 00:10:17;;;;;;;4.82;2.25;;;19.30;99.90;;;;;;5049319;28;20037;-67
2023/04/23 00:12:45;;;;;;;4.20;2.40;;;19.40;99.90;;;;;;5046797;28;20021;-67
2023/04/23 00:15:14;;;;;;;5.78;2.22;;;19.50;99.90;;;;;;5038039;28;20076;-67
2023/04/23 00:17:42;;;;;;;5.10;2.70;;;19.70;99.90;;;;;;5048886;28;20071;-67
2023/04/23 00:20:10;;;;;;;3.90;2.15;;;19.80;99.90;;;;;;5047252;28;20017;-67
2023/04/23 00:22:38;;;;;;;5.28;2.20;;;19.90;99.90;;;;;;5044142;28;20028;-67
2023/04/23 00:25:09;;;;;;;5.85;2.40;;;20.10;99.90;;;;;;5050433;28;20521;-67
2023/04/23 00:27:37;;;;;;;4.15;2.33;;;20.30;99.90;;;;;;5044468;28;20034;-67
2023/04/23 00:30:06;;;;;;;5.05;2.30;;;20.40;99.90;;;;;;5028948;28;20520;-67
2023/04/23 00:32:33;;;;;;;6.88;2.10;;;20.60;99.90;;;;;;5048753;28;20025;-66
2023/04/23 00:35:01;;;;;;;3.67;2.38;;;20.80;99.90;;;;;;5048077;28;20121;-67
2023/04/23 00:37:28;;;;;;;3.30;1.95;;;21.10;99.90;;;;;;5048639;28;20029;-68
2023/04/23 00:39:56;;;;;;;4.60;1.90;;;21.40;99.90;;;;;;5047127;28;20108;-67
2023/04/23 00:42:23;;;;;;;4.68;1.70;;;21.70;99.90;;;;;;5045253;28;20021;-68
2023/04/23 00:44:51;;;;;;;3.38;1.60;;;21.80;99.90;;;;;;5047143;28;20052;-72
2023/04/23 00:47:19;;;;;;;5.45;1.85;;;21.90;99.90;;;;;;5046620;28;20450;-69
2023/04/23 00:49:47;;;;;;;4.15;1.80;;;22.10;99.90;;;;;;5044055;28;20486;-69
2023/04/23 00:52:15;;;;;;;3.40;2.00;;;22.20;99.90;;;;;;5052890;28;20096;-73
2023/04/23 00:54:42;;;;;;;3.72;1.65;;;22.40;99.90;;;;;;5047446;28;20738;-68
2023/04/23 00:57:11;;;;;;;3.10;1.50;;;22.50;99.90;;;;;;5032542;28;20489;-69
2023/04/23 00:59:38;;;;;;;2.72;1.50;;;22.60;99.90;;;;;;5047598;28;20029;-66
2023/04/23 01:02:06;;;;;;;5.28;1.42;;;22.40;99.90;;;;;;5044842;28;20021;-67
2023/04/23 01:04:35;;;;;;;3.00;1.60;;;22.40;99.90;;;;;;5042621;28;20448;-66
2023/04/23 01:07:03;;;;;;;4.80;2.05;;;22.50;99.90;;;;;;5043212;28;20029;-69
2023/04/23 01:09:31;;;;;;;3.42;1.60;;;22.50;99.90;;;;;;5046913;28;20033;-69
2023/04/23 01:12:01;;;;;;;3.47;1.48;;;22.50;99.90;;;;;;5049192;28;20033;-67
2023/04/23 01:14:28;;;;;;;3.42;1.25;;;22.70;99.90;;;;;;5043300;28;20053;-69
2023/04/23 01:16:57;;;;;;;2.88;1.23;;;22.80;99.90;;;;;;5048085;28;20025;-69
2023/04/23 01:19:25;;;;;;;4.50;1.30;;;22.60;99.90;;;;;;5048299;28;20028;-66
2023/04/23 01:21:52;;;;;;;2.63;1.30;;;22.50;99.90;;;;;;5040680;28;20049;-66
2023/04/23 01:24:23;;;;;;;7.13;1.45;;;22.60;99.90;;;;;;5043874;28;20025;-66
2023/04/23 01:26:51;;;;;;;3.45;1.40;;;23.00;99.90;;;;;;5045274;28;20041;-68
2023/04/23 01:29:19;;;;;;;1.80;0.95;;;23.10;99.90;;;;;;5052744;28;20375;-66
2023/04/23 01:31:47;;;;;;;2.50;0.90;;;23.00;99.90;;;;;;5048394;28;20090;-65
2023/04/23 01:34:15;;;;;;;2.20;0.75;;;22.90;99.90;;;;;;5054654;28;20100;-65
2023/04/23 01:36:44;;;;;;;1.58;0.85;;;22.70;99.90;;;;;;5053823;28;20482;-66
2023/04/23 01:39:11;;;;;;;2.22;1.23;;;22.60;99.90;;;;;;5037049;28;20095;-67
2023/04/23 01:41:45;;;;;;;2.97;0.75;;;22.50;99.90;;;;;;5054014;28;20021;-66
2023/04/23 01:44:13;;;;;;;4.30;1.05;;;22.40;99.90;;;;;;5054103;28;20025;-65
2023/04/23 01:46:40;;;;;;;1.25;0.77;;;22.60;99.90;;;;;;5053811;28;20554;-64
2023/04/23 01:49:08;;;;;;;3.65;1.33;;;22.80;99.90;;;;;;5053524;28;20029;-66
2023/04/23 01:51:39;;;;;;;2.15;0.90;;;23.00;99.90;;;;;;5053351;28;20071;-68
2023/04/23 01:54:06;;;;;;;3.30;1.45;;;23.10;99.90;;;;;;5045231;28;20028;-67
2023/04/23 01:56:34;;;;;;;1.13;0.77;;;23.20;99.90;;;;;;5042221;28;20033;-66
2023/04/23 01:59:02;;;;;;;3.13;1.23;;;23.20;99.90;;;;;;5052626;28;20056;-65
2023/04/23 02:01:46;;;;;;;4.40;1.88;;;23.20;99.90;;;;;;5033452;28;20390;-66
2023/04/23 02:04:14;;;;;;;3.00;1.30;;;23.40;99.90;;;;;;5050274;28;20452;-64
2023/04/23 02:06:44;;;;;;;8.48;1.65;;;24.00;99.90;;;;;;5048237;28;20518;-66
2023/04/23 02:09:12;;;;;;;5.63;1.30;;;24.20;99.90;;;;;;5034750;28;20041;-63
2023/04/23 02:11:40;;;;;;;3.90;1.10;;;24.60;99.90;;;;;;5048736;28;20021;-66
2023/04/23 02:14:08;;;;;;;3.42;1.30;;;24.50;99.90;;;;;;5048869;28;20041;-68
2023/04/23 02:16:35;;;;;;;2.33;1.20;;;24.20;99.90;;;;;;5045607;28;20025;-67
2023/04/23 02:19:03;;;;;;;5.53;1.80;;;23.90;99.90;;;;;;5049781;28;20090;-66
2023/04/23 02:21:31;;;;;;;2.78;1.27;;;23.70;99.90;;;;;;5052920;28;20025;-67
2023/04/23 02:23:59;;;;;;;3.90;1.15;;;23.40;99.90;;;;;;5065325;28;20021;-67
2023/04/23 02:26:27;;;;;;;6.00;1.60;;;23.30;99.90;;;;;;5058421;28;20020;-67
2023/04/23 02:28:55;;;;;;;2.50;1.27;;;23.10;99.90;;;;;;5054385;28;20034;-67
2023/04/23 02:31:23;;;;;;;1.85;1.60;;;22.70;99.90;;;;;;5048482;28;20533;-67
2023/04/23 02:33:50;;;;;;;3.03;1.65;;;22.60;99.90;;;;;;5046825;28;20045;-67
2023/04/23 02:36:18;;;;;;;3.88;1.23;;;22.70;99.90;;;;;;5064814;28;20112;-67
2023/04/23 02:38:49;;;;;;;3.13;1.50;;;22.90;99.90;;;;;;5040285;28;20119;-67
2023/04/23 02:41:17;;;;;;;2.50;1.25;;;23.20;99.90;;;;;;5032073;28;20033;-69
2023/04/23 02:43:45;;;;;;;3.78;1.20;;;23.70;99.90;;;;;;5050739;28;20415;-67
2023/04/23 02:46:16;;;;;;;2.80;1.25;;;23.90;99.90;;;;;;5044527;28;20120;-68
2023/04/23 02:48:43;;;;;;;2.20;1.00;;;23.80;99.90;;;;;;5041528;28;20040;-67
2023/04/23 02:51:13;;;;;;;2.55;0.93;;;23.70;99.90;;;;;;5048177;28;20029;-67
2023/04/23 02:53:40;;;;;;;2.38;0.93;;;23.70;99.90;;;;;;5037571;28;20036;-67
2023/04/23 02:56:08;;;;;;;2.15;0.80;;;23.80;99.90;;;;;;5050184;28;20100;-68
2023/04/23 02:58:35;;;;;;;2.92;1.00;;;23.90;99.90;;;;;;5032509;28;20033;-69
2023/04/23 03:01:04;;;;;;;1.80;0.85;;;24.20;99.90;;;;;;5051739;28;20040;-67
2023/04/23 03:03:31;;;;;;;2.35;1.20;;;24.20;99.90;;;;;;5047800;28;20056;-65
2023/04/23 03:06:00;;;;;;;4.65;1.27;;;24.20;99.90;;;;;;5033488;28;20063;-66
2023/04/23 03:08:28;;;;;;;2.45;1.00;;;24.10;99.90;;;;;;5059031;28;20017;-66
2023/04/23 03:10:55;;;;;;;5.13;1.10;;;24.10;99.90;;;;;;5053746;28;20033;-67
2023/04/23 03:13:23;;;;;;;5.15;1.63;;;24.20;99.90;;;;;;5036012;28;20386;-67
2023/04/23 03:15:53;;;;;;;4.93;1.42;;;24.20;99.90;;;;;;5049968;28;20032;-67
2023/04/23 03:18:21;;;;;;;3.55;0.90;;;24.00;99.90;;;;;;5051538;28;20021;-67
2023/04/23 03:20:48;;;;;;;3.78;1.08;;;23.60;99.90;;;;;;5052684;28;20049;-67
2023/04/23 03:23:16;;;;;;;2.17;1.35;;;23.70;99.90;;;;;;5054753;28;20029;-66
2023/04/23 03:25:43;;;;;;;2.72;1.33;;;23.80;99.90;;;;;;5047479;28;20452;-68
2023/04/23 03:28:10;;;;;;;2.65;1.67;;;24.10;99.90;;;;;;5049105;28;20431;-67
2023/04/23 03:30:38;;;;;;;4.20;1.50;;;24.40;99.90;;;;;;5040862;28;20045;-68
2023/04/23 03:33:06;;;;;;;3.88;1.00;;;24.50;99.90;;;;;;5034235;28;20028;-68
2023/04/23 03:35:35;;;;;;;2.40;1.02;;;24.50;99.90;;;;;;5029857;28;20518;-67
2023/04/23 03:38:05;;;;;;;3.58;1.23;;;24.20;99.90;;;;;;5040265;28;20373;-67
2023/04/23 03:40:32;;;;;;;4.68;0.90;;;24.00;99.90;;;;;;5030687;28;20041;-67
2023/04/23 03:43:00;;;;;;;1.98;0.75;;;23.80;99.90;;;;;;5034033;28;20510;-67
2023/04/23 03:45:27;;;;;;;2.17;1.05;;;23.60;99.90;;;;;;5030724;28;20112;-66
2023/04/23 03:47:55;;;;;;;2.25;0.70;;;23.30;99.90;;;;;;5047798;28;20032;-67
2023/04/23 03:50:22;;;;;;;7.28;1.77;;;23.30;99.90;;;;;;5044887;28;20033;-68
2023/04/23 03:52:50;;;;;;;3.38;0.80;;;23.30;99.90;;;;;;5051105;28;20029;-66
2023/04/23 03:55:19;;;;;;;1.35;0.75;;;23.40;99.90;;;;;;5049231;28;20057;-67
2023/04/23 03:57:46;;;;;;;1.75;0.82;;;23.40;99.90;;;;;;5049471;28;20095;-69
2023/04/23 04:00:14;;;;;;;3.38;0.63;;;23.50;99.90;;;;;;5047067;28;20071;-67
2023/04/23 04:02:41;;;;;;;3.03;0.90;;;23.70;99.90;;;;;;5043432;28;20566;-68
2023/04/23 04:05:09;;;;;;;1.27;0.55;;;23.90;99.90;;;;;;5046606;28;20020;-65
2023/04/23 04:07:37;;;;;;;3.60;0.80;;;24.10;99.90;;;;;;5042584;28;20029;-65
2023/04/23 04:10:06;;;;;;;2.83;1.20;;;24.10;99.90;;;;;;5050464;28;20033;-65
2023/04/23 04:12:35;;;;;;;7.10;1.27;;;23.90;99.90;;;;;;5050301;28;20017;-65
2023/04/23 04:15:03;;;;;;;2.80;1.00;;;23.70;99.90;;;;;;5049995;28;20041;-65
2023/04/23 04:17:31;;;;;;;2.45;1.10;;;23.40;99.90;;;;;;5037661;28;20036;-65
2023/04/23 04:19:58;;;;;;;3.92;1.38;;;23.20;99.90;;;;;;5049728;28;20122;-65
2023/04/23 04:22:26;;;;;;;2.85;1.13;;;23.00;99.90;;;;;;5049815;28;20021;-65
2023/04/23 04:24:53;;;;;;;5.03;1.30;;;22.80;99.90;;;;;;5048877;28;20489;-65
2023/04/23 04:27:21;;;;;;;5.30;1.38;;;22.80;99.90;;;;;;5050312;28;20033;-65
2023/04/23 04:29:48;;;;;;;2.05;1.10;;;22.60;99.90;;;;;;5050452;28;20044;-65
2023/04/23 04:32:15;;;;;;;1.73;0.93;;;22.70;99.90;;;;;;5050069;28;20025;-65
2023/04/23 04:34:43;;;;;;;2.67;1.17;;;22.90;99.90;;;;;;5032216;28;20052;-65
2023/04/23 04:37:11;;;;;;;5.47;1.20;;;23.20;99.90;;;;;;5032121;28;20387;-66
2023/04/23 04:39:38;;;;;;;3.47;1.52;;;23.40;99.90;;;;;;5049878;28;20557;-66
2023/04/23 04:42:06;;;;;;;4.25;1.23;;;23.50;99.90;;;;;;5049651;28;20021;-65
2023/04/23 04:44:36;;;;;;;3.95;1.38;;;23.60;99.90;;;;;;5049092;28;20033;-64
2023/04/23 04:47:03;;;;;;;4.50;1.35;;;23.30;99.90;;;;;;5049364;28;20049;-64
2023/04/23 04:49:31;;;;;;;1.67;1.50;;;23.20;99.90;;;;;;5030293;28;20121;-65
2023/04/23 04:51:59;;;;;;;4.55;1.65;;;23.30;99.90;;;;;;5031384;28;20374;-65
2023/04/23 04:54:27;;;;;;;2.22;1.40;;;23.40;99.90;;;;;;5049862;28;20013;-65
2023/04/23 04:56:54;;;;;;;4.20;1.33;;;23.40;99.90;;;;;;5049650;28;20029;-65
2023/04/23 04:59:21;;;;;;;3.58;1.38;;;23.50;99.90;;;;;;5032051;28;20025;-65
2023/04/23 05:01:49;;;;;;;3.20;1.27;;;23.70;99.90;;;;;;5049535;28;20036;-65
2023/04/23 05:04:17;;;;;;;3.45;1.20;;;23.90;99.90;;;;;;5049711;28;20069;-65
2023/04/23 05:06:44;;;;;;;3.03;1.88;;;23.90;99.90;;;;;;5049547;28;20484;-64
2023/04/23 05:09:12;;;;;;;4.03;1.17;;;23.80;99.90;;;;;;5031448;28;20037;-64
2023/04/23 05:11:40;;;;;;;2.38;1.33;;;23.40;99.90;;;;;;5049262;28;20083;-64
2023/04/23 05:14:07;;;;;;;7.70;1.25;;;23.00;99.90;;;;;;5048900;28;20033;-65
2023/04/23 05:16:35;;;;;;;2.28;1.10;;;22.70;99.90;;;;;;5049355;28;20036;-64
2023/04/23 05:19:02;;;;;;;2.63;1.40;;;22.50;99.90;;;;;;5049063;28;20074;-63
2023/04/23 05:21:30;;;;;;;4.68;1.45;;;22.50;99.90;;;;;;5049314;28;20440;-64
2023/04/23 05:23:57;;;;;;;3.50;1.58;;;22.40;99.90;;;;;;5049246;28;20027;-64
2023/04/23 05:26:25;;;;;;;3.10;1.75;;;22.40;99.90;;;;;;5048814;28;20698;-66
2023/04/23 05:28:52;;;;;;;3.22;1.42;;;22.50;99.90;;;;;;5035650;28;20093;-64
2023/04/23 05:31:20;;;;;;;4.10;1.67;;;22.40;99.90;;;;;;5048310;28;20041;-64
2023/04/23 05:33:47;;;;;;;2.67;1.40;;;22.50;99.90;;;;;;5031294;28;20021;-64
2023/04/23 05:36:15;;;;;;;3.47;2.17;;;22.50;99.90;;;;;;5048531;28;20029;-64
2023/04/23 05:38:42;;;;;;;5.97;1.80;;;22.40;99.90;;;;;;5030797;28;20025;-63
2023/04/23 05:41:10;;;;;;;5.85;2.17;;;22.30;99.90;;;;;;5047862;28;20516;-63
2023/04/23 05:43:37;;;;;;;3.35;1.80;;;22.20;99.90;;;;;;5047587;28;20108;-64
2023/04/23 05:46:06;;;;;;;2.67;1.65;;;22.20;99.90;;;;;;5047516;28;20505;-64
2023/04/23 05:48:34;;;;;;;8.02;2.78;;;22.10;99.90;;;;;;5047382;28;20032;-64
2023/04/23 05:51:01;;;;;;;3.60;1.63;;;22.00;99.90;;;;;;5047758;28;20049;-64
2023/04/23 05:53:29;;;;;;;7.22;3.15;;;21.80;99.90;;;;;;5050287;28;20016;-64
2023/04/23 05:55:56;;;;;;;4.68;1.85;;;21.80;99.90;;;;;;5032101;28;20024;-64
2023/04/23 05:58:24;;;;;;;5.68;2.78;;;21.80;99.90;;;;;;5047459;28;20478;-65
2023/04/23 06:00:53;;;;;;;5.40;1.95;;;21.70;99.90;;;;;;5047841;28;20086;-65
2023/04/23 06:03:20;;;;;;;6.60;2.03;;;21.80;99.90;;;;;;5051717;28;20033;-65
2023/04/23 06:05:48;;;;;;;5.68;2.00;;;21.80;99.90;;;;;;5043862;28;20104;-64
2023/04/23 06:08:15;;;;;;;3.75;1.90;;;21.70;99.90;;;;;;5029704;28;20086;-64
2023/04/23 06:10:42;;;;;;;6.05;2.03;;;21.60;99.90;;;;;;5047256;28;20483;-65
2023/04/23 06:13:10;;;;;;;4.45;2.05;;;21.60;99.90;;;;;;5042261;28;20030;-65
2023/04/23 06:15:38;;;;;;;5.43;1.60;;;21.60;99.90;;;;;;5046172;28;20041;-66
2023/04/23 06:18:05;;;;;;;4.05;1.50;;;21.50;99.90;;;;;;5046666;28;20029;-65
2023/04/23 06:20:33;;;;;;;6.25;1.70;;;21.50;99.90;;;;;;5044856;28;20025;-65
2023/04/23 06:23:01;;;;;;;2.47;1.40;;;21.40;99.90;;;;;;5046723;28;20032;-65
2023/04/23 06:25:29;;;;;;;4.05;2.10;;;21.40;99.90;;;;;;5043245;28;20025;-65
2023/04/23 06:27:57;;;;;;;4.20;1.90;;;21.40;99.90;;;;;;5049658;28;20021;-65
2023/04/23 06:30:24;;;;;;;7.28;1.50;;;21.40;99.90;;;;;;5045461;28;20045;-65
2023/04/23 06:32:51;;;;;;;2.70;1.48;;;21.30;99.90;;;;;;5033985;28;20508;-65
2023/04/23 06:35:19;;;;;;;4.40;1.85;;;21.30;99.90;;;;;;5049747;28;20696;-65
2023/04/23 06:37:47;;;;;;;5.18;2.10;;;21.30;99.90;;;;;;5034340;28;20436;-65
2023/04/23 06:40:15;;;;;;;2.33;1.75;;;21.20;99.90;;;;;;5048371;28;20033;-65
2023/04/23 06:42:44;;;;;;;4.55;2.13;;;21.20;99.90;;;;;;5043815;28;21066;-65
2023/04/23 06:45:12;;;;;;;4.90;2.13;;;21.10;99.90;;;;;;5047269;28;20113;-66
2023/04/23 06:47:39;;;;;;;6.53;3.55;;;21.00;99.90;;;;;;5043800;28;20041;-65
2023/04/23 06:50:07;;;;;;;6.38;2.40;;;20.90;99.90;;;;;;5031572;28;20094;-65
2023/04/23 06:52:36;;;;;;;5.63;2.80;;;20.90;99.90;;;;;;5046261;28;20032;-65
2023/04/23 06:55:03;;;;;;;5.35;3.10;;;20.80;99.90;;;;;;5048114;28;20057;-65
2023/04/23 06:57:31;;;;;;;8.05;3.10;;;20.70;99.90;;;;;;5028457;28;20112;-65
2023/04/23 06:59:58;;;;;;;5.05;2.72;;;20.60;99.90;;;;;;5049104;28;20493;-65
2023/04/23 07:02:26;;;;;;;7.32;4.47;;;20.50;99.90;;;;;;5048635;28;20028;-65
2023/04/23 07:04:54;;;;;;;5.40;3.35;;;20.50;99.90;;;;;;5049019;28;20032;-64
2023/04/23 07:07:21;;;;;;;6.45;3.22;;;20.50;99.90;;;;;;5038250;28;20033;-65
2023/04/23 07:09:49;;;;;;;5.80;2.83;;;20.40;99.90;;;;;;5031186;28;20083;-65
2023/04/23 07:12:16;;;;;;;4.25;3.22;;;20.40;99.90;;;;;;5049201;28;20114;-65
2023/04/23 07:14:44;;;;;;;4.78;2.70;;;20.20;99.90;;;;;;5047160;28;20769;-65
2023/04/23 07:17:11;;;;;;;4.30;2.63;;;20.00;99.90;;;;;;5034037;28;20109;-65
2023/04/23 07:19:39;;;;;;;4.22;3.05;;;19.70;99.90;;;;;;5048685;28;20078;-65
2023/04/23 07:22:06;;;;;;;5.20;3.15;;;19.60;99.90;;;;;;5048311;28;20107;-65
2023/04/23 07:24:34;;;;;;;7.03;3.28;;;19.40;99.90;;;;;;5048734;28;20028;-65
2023/04/23 07:27:02;;;;;;;5.75;3.30;;;19.40;99.90;;;;;;5039559;28;20033;-65
2023/04/23 07:29:30;;;;;;;7.13;2.90;;;19.20;99.90;;;;;;5048406;28;20029;-65
2023/04/23 07:31:57;;;;;;;2.92;2.28;;;19.10;99.90;;;;;;5033278;28;20501;-65
2023/04/23 07:34:25;;;;;;;5.32;2.70;;;19.00;99.90;;;;;;5047273;28;20087;-65
2023/04/23 07:36:53;;;;;;;6.35;3.33;;;18.90;99.90;;;;;;5046043;28;20102;-65
2023/04/23 07:39:20;;;;;;;4.40;3.05;;;18.80;99.90;;;;;;5045433;28;20104;-65
2023/04/23 07:41:48;;;;;;;7.22;3.15;;;18.80;99.90;;;;;;5046338;28;20025;-65
2023/04/23 07:44:19;;;;;;;5.45;3.50;;;18.70;99.90;;;;;;5038648;28;20054;-65
2023/04/23 07:46:46;;;;;;;5.90;3.33;;;18.60;99.90;;;;;;5043080;28;20108;-64
2023/04/23 07:49:16;;;;;;;8.27;4.85;;;18.60;99.90;;;;;;5045453;28;20032;-65
2023/04/23 07:51:44;;;;;;;9.13;4.18;;;18.50;99.90;;;;;;5046979;28;20033;-67
2023/04/23 07:54:12;;;;;;;13.73;5.40;;;18.40;99.90;;;;;;5044409;28;20056;-69
2023/04/23 07:56:39;;;;;;;10.10;5.55;;;18.40;99.90;;;;;;5028753;28;20025;-67
2023/04/23 07:59:08;;;;;;;9.25;5.60;;;18.30;99.90;;;;;;5037719;28;20802;-67
2023/04/23 08:01:36;;;;;;;9.90;5.57;;;18.30;99.90;;;;;;5042841;28;20025;-68
2023/04/23 08:04:03;;;;;;;8.82;5.75;;;18.20;99.90;;;;;;5040947;28;20024;-66
2023/04/23 08:06:33;;;;;;;8.30;6.10;;;18.10;99.90;;;;;;5047164;28;20044;-67
2023/04/23 08:09:05;;;;;;;10.30;6.25;;;18.10;99.90;;;;;;5049134;28;20027;-67
2023/04/23 08:11:33;;;;;;;10.30;6.28;;;18.00;99.90;;;;;;5048484;28;20505;-67
2023/04/23 08:14:00;;;;;;;9.20;6.07;;;17.90;99.90;;;;;;5033986;28;20041;-69
2023/04/23 08:16:28;;;;;;;11.80;7.07;;;17.80;99.90;;;;;;5042232;28;20563;-68
2023/04/23 08:19:03;;;;;;;9.52;6.20;;;17.80;99.90;;;;;;5050223;28;20071;-68
2023/04/23 08:21:32;;;;;;;14.93;6.63;;;17.70;99.90;;;;;;5036778;28;20028;-69
2023/04/23 08:24:01;;;;;;;14.80;7.57;;;17.70;99.90;;;;;;5049823;28;20013;-68
2023/04/23 08:26:29;;;;;;;13.90;8.30;;;17.70;99.90;;;;;;5032564;28;20029;-67
2023/04/23 08:28:59;;;;;;;13.30;8.75;;;17.60;99.90;;;;;;5049707;28;20033;-67
2023/04/23 08:31:27;;;;;;;12.82;8.68;;;17.70;99.90;;;;;;5029871;28;20041;-67
2023/04/23 08:33:55;;;;;;;11.68;7.88;;;17.70;99.90;;;;;;5033303;28;20112;-68
2023/04/23 08:36:23;;;;;;;13.00;7.72;;;17.70;99.90;;;;;;5048232;28;20025;-69
2023/04/23 08:38:51;;;;;;;12.13;6.97;;;17.60;99.90;;;;;;5049527;28;20487;-68
2023/04/23 08:41:22;;;;;;;10.52;7.95;;;17.70;99.90;;;;;;5049104;28;20029;-68
2023/04/23 08:44:16;;;;;;;15.77;8.57;;;17.60;99.90;;;;;;5046612;28;20021;-69
2023/04/23 08:46:45;;;;;;;14.90;8.05;;;17.70;99.90;;;;;;5049384;28;20017;-68
2023/04/23 08:49:15;;;;;;;13.77;8.30;;;17.70;99.90;;;;;;5048057;28;20044;-67
2023/04/23 08:52:15;;;;;;;13.55;7.95;;;17.70;99.90;;;;;;5037948;28;20081;-67
2023/04/23 08:54:48;;;;;;;13.88;8.50;;;17.70;99.90;;;;;;5049368;28;20136;-68
2023/04/23 08:57:17;;;;;;;17.15;9.45;;;17.70;99.90;;;;;;5049356;28;20028;-68
2023/04/23 08:59:46;;;;;;;18.48;11.45;;;17.70;99.90;;;;;;5035275;28;20587;-69
2023/04/23 09:02:17;;;;;;;20.90;12.55;;;17.70;99.90;;;;;;5046855;28;20041;-68
2023/04/23 09:04:46;;;;;;;22.20;12.45;;;17.80;99.90;;;;;;5031012;28;20021;-68
2023/04/23 09:07:14;;;;;;;19.27;11.23;;;17.70;99.90;;;;;;5047689;28;20036;-68
2023/04/23 09:09:41;;;;;;;15.82;10.23;;;17.70;99.90;;;;;;5048400;28;20036;-68
2023/04/23 09:12:10;;;;;;;16.92;9.30;;;17.70;99.90;;;;;;5032628;28;20493;-68
2023/04/23 09:14:37;;;;;;;15.13;8.80;;;17.60;99.90;;;;;;5045750;28;20529;-66
2023/04/23 09:17:05;;;;;;;18.85;10.07;;;17.60;99.90;;;;;;5029354;28;20028;-67
2023/04/23 09:19:33;;;;;;;16.55;9.32;;;17.60;99.90;;;;;;5047789;28;20048;-68
2023/04/23 09:22:03;;;;;;;19.17;9.98;;;17.50;99.90;;;;;;5039594;28;20028;-67
2023/04/23 09:24:33;;;;;;;21.92;14.00;;;17.60;99.90;;;;;;5040635;28;20025;-68
2023/04/23 09:27:02;;;;;;;29.08;18.17;;;17.50;99.90;;;;;;5041442;28;20458;-65
2023/04/23 09:29:30;;;;;;;32.65;20.05;;;17.60;99.90;;;;;;5028897;28;20035;-63
2023/04/23 09:32:08;;;;;;;30.25;19.25;;;17.60;99.90;;;;;;5044999;28;20106;-68
2023/04/23 09:34:37;;;;;;;33.08;21.50;;;17.50;99.90;;;;;;5024195;28;20556;-70
2023/04/23 09:37:10;;;;;;;35.33;22.50;;;17.60;99.90;;;;;;5022205;28;20036;-69
2023/04/23 09:39:39;;;;;;;28.50;17.70;;;17.60;99.90;;;;;;5021354;28;20094;-66
2023/04/23 09:42:10;;;;;;;25.45;16.33;;;17.50;99.90;;;;;;5031514;28;20022;-71
2023/04/23 09:44:37;;;;;;;26.73;13.93;;;17.50;99.90;;;;;;5021427;28;20460;-67
2023/04/23 09:47:08;;;;;;;26.00;13.23;;;17.50;99.90;;;;;;5023263;28;20545;-69
2023/04/23 09:49:49;;;;;;;22.98;13.43;;;17.50;99.90;;;;;;5027980;28;20252;-67
2023/04/23 09:52:18;;;;;;;25.17;14.20;;;17.40;99.90;;;;;;5038111;28;20040;-70
2023/04/23 09:54:46;;;;;;;22.83;15.40;;;17.40;99.90;;;;;;5035794;28;20374;-72
2023/04/23 09:57:14;;;;;;;23.73;14.15;;;17.40;99.90;;;;;;5045291;28;21659;-68
2023/04/23 09:59:41;;;;;;;24.15;14.88;;;17.40;99.90;;;;;;5045705;28;20371;-69
2023/04/23 10:02:17;;;;;;;27.80;15.52;;;17.40;99.90;;;;;;5031512;28;20026;-70
2023/04/23 10:04:49;;;;;;;24.13;15.95;;;17.40;99.90;;;;;;5027344;28;20091;-69
2023/04/23 10:07:17;;;;;;;27.45;15.15;;;17.30;99.90;;;;;;5024037;28;20040;-68
2023/04/23 10:09:48;;;;;;;21.20;14.27;;;17.30;99.90;;;;;;5045073;28;20037;-69
2023/04/23 10:12:16;;;;;;;29.85;15.75;;;17.30;99.90;;;;;;5027121;28;20068;-68
2023/04/23 10:14:45;;;;;;;23.05;14.27;;;17.30;99.90;;;;;;5044835;28;20401;-67
2023/04/23 10:17:13;;;;;;;26.10;15.38;;;17.30;99.90;;;;;;5045754;28;20032;-65
2023/04/23 10:19:42;;;;;;;27.58;15.20;;;17.30;99.90;;;;;;5030088;28;20028;-66
2023/04/23 10:22:12;;;;;;;24.70;15.40;;;17.30;99.90;;;;;;5030225;28;20068;-67
2023/04/23 10:24:40;;;;;;;24.80;15.32;;;17.30;99.90;;;;;;5046126;28;20683;-68
2023/04/23 10:27:14;;;;;;;27.10;16.05;;;17.20;99.90;;;;;;5046069;28;20115;-67
2023/04/23 10:29:42;;;;;;;26.30;14.80;;;17.20;99.90;;;;;;5037565;28;20214;-67
2023/04/23 10:32:11;;;;;;;28.17;17.00;;;17.20;99.90;;;;;;5033285;28;20067;-68
2023/04/23 10:34:40;;;;;;;26.02;15.85;;;17.10;99.90;;;;;;5038013;28;20032;-68
2023/04/23 10:37:08;;;;;;;30.27;17.80;;;17.10;99.90;;;;;;5045534;28;20040;-68
2023/04/23 10:39:36;;;;;;;28.25;18.25;;;17.10;99.90;;;;;;5047074;28;20405;-68
2023/04/23 10:42:05;;;;;;;24.52;16.02;;;17.10;99.90;;;;;;5047242;28;20071;-68
2023/04/23 10:44:37;;;;;;;36.38;18.55;;;17.10;99.90;;;;;;5045608;28;20558;-68
2023/04/23 10:47:05;;;;;;;41.90;24.40;;;17.10;99.90;;;;;;5030885;28;20482;-68
2023/04/23 10:49:34;;;;;;;33.80;20.25;;;17.20;99.90;;;;;;5041117;28;20520;-68
2023/04/23 10:52:09;;;;;;;36.30;21.48;;;17.20;99.90;;;;;;5043424;28;20087;-68
2023/04/23 10:54:40;;;;;;;27.63;18.42;;;17.20;99.90;;;;;;5044354;28;20025;-68
2023/04/23 10:57:08;;;;;;;26.83;16.00;;;17.20;99.90;;;;;;5045113;28;20021;-68
2023/04/23 10:59:40;;;;;;;26.70;14.00;;;17.10;99.90;;;;;;5029651;28;20398;-68
2023/04/23 11:02:13;;;;;;;21.17;12.07;;;17.10;99.90;;;;;;5044516;28;20051;-68
2023/04/23 11:04:57;;;;;;;18.23;11.52;;;17.10;99.90;;;;;;5044858;28;20079;-67
2023/04/23 11:07:32;;;;;;;21.92;12.48;;;17.10;99.90;;;;;;5036657;28;20033;-67
2023/04/23 11:10:21;;;;;;;17.10;12.48;;;17.10;99.90;;;;;;5046824;28;20051;-67
2023/04/23 11:12:48;;;;;;;27.98;14.07;;;17.10;99.90;;;;;;5047738;28;20049;-67
2023/04/23 11:15:18;;;;;;;26.40;16.17;;;17.00;99.90;;;;;;5045120;28;20037;-67
2023/04/23 11:17:46;;;;;;;28.75;18.00;;;17.00;99.90;;;;;;5038450;28;20051;-68
2023/04/23 11:20:15;;;;;;;28.20;15.85;;;17.00;99.90;;;;;;5029904;28;20041;-68
2023/04/23 11:22:44;;;;;;;32.40;18.38;;;17.00;99.90;;;;;;5045347;28;20028;-67
2023/04/23 11:25:23;;;;;;;34.90;18.10;;;17.00;99.90;;;;;;5050382;28;20437;-67
2023/04/23 11:27:52;;;;;;;42.17;19.63;;;17.00;99.90;;;;;;5051120;28;20036;-67
2023/04/23 11:30:24;;;;;;;28.65;17.55;;;17.00;99.90;;;;;;5047861;28;20037;-67
2023/04/23 11:32:54;;;;;;;33.67;16.15;;;17.00;99.90;;;;;;5044619;28;20106;-68
2023/04/23 11:35:27;;;;;;;25.70;14.98;;;17.00;99.90;;;;;;5031418;28;20091;-68
2023/04/23 11:37:55;;;;;;;26.08;14.45;;;17.00;99.90;;;;;;5044718;28;20029;-67
2023/04/23 11:40:23;;;;;;;23.92;12.75;;;17.10;99.90;;;;;;5044444;28;20115;-68
2023/04/23 11:42:53;;;;;;;18.40;11.70;;;17.10;99.90;;;;;;5039604;28;20037;-67
2023/04/23 11:45:28;;;;;;;22.38;12.55;;;17.10;99.90;;;;;;5044220;28;20056;-68
2023/04/23 11:47:58;;;;;;;22.58;11.90;;;17.10;99.90;;;;;;5039843;28;20029;-68
2023/04/23 11:50:28;;;;;;;22.25;10.93;;;17.10;99.90;;;;;;5036091;28;20469;-67
2023/04/23 11:52:56;;;;;;;22.17;10.75;;;17.20;99.90;;;;;;5051496;28;20028;-68
2023/04/23 11:55:25;;;;;;;19.65;9.82;;;17.20;99.90;;;;;;5044019;28;20032;-68
2023/04/23 11:57:52;;;;;;;17.10;9.02;;;17.20;99.90;;;;;;5030596;28;20763;-68
2023/04/23 12:00:21;;;;;;;15.57;9.13;;;17.20;99.90;;;;;;5033805;28;20033;-68
2023/04/23 12:02:57;;;;;;;16.52;9.20;;;17.20;99.90;;;;;;5044556;28;20143;-68
2023/04/23 12:05:32;;;;;;;20.48;10.60;;;17.20;99.90;;;;;;5037868;28;20124;-67
2023/04/23 12:08:15;;;;;;;15.10;9.40;;;17.20;99.90;;;;;;5041780;28;20048;-68
2023/04/23 12:10:47;;;;;;;17.02;9.40;;;17.20;99.90;;;;;;5038561;28;20094;-68
2023/04/23 12:13:17;;;;;;;27.88;9.52;;;17.30;99.90;;;;;;5023746;28;20100;-68
2023/04/23 12:15:51;;;;;;;15.65;7.93;;;17.30;99.90;;;;;;5030406;28;20084;-68
2023/04/23 12:18:19;;;;;;;17.55;6.55;;;17.30;99.90;;;;;;5028849;28;20032;-68
2023/04/23 12:20:47;;;;;;;14.10;6.65;;;17.30;99.90;;;;;;5033617;28;20025;-68
2023/04/23 12:23:14;;;;;;;11.88;5.55;;;17.30;99.90;;;;;;5041113;28;20032;-68
2023/04/23 12:25:42;;;;;;;10.38;6.07;;;17.30;99.90;;;;;;5045553;28;20025;-68
2023/04/23 12:28:09;;;;;;;13.48;5.32;;;17.30;99.90;;;;;;5025900;28;20036;-68
2023/04/23 12:30:44;;;;;;;12.35;5.97;;;17.40;99.90;;;;;;5020911;28;20078;-70
2023/04/23 12:33:12;;;;;;;12.15;5.75;;;17.40;99.90;;;;;;5040694;28;20385;-69
2023/04/23 12:35:41;;;;;;;10.32;5.28;;;17.50;99.90;;;;;;5024618;28;20112;-70
2023/04/23 12:38:25;;;;;;;16.23;4.93;;;17.50;99.90;;;;;;5046874;28;20115;-70
2023/04/23 12:40:58;;;;;;;9.27;5.68;;;17.50;99.90;;;;;;5040250;28;20036;-69
2023/04/23 12:43:26;;;;;;;10.98;5.25;;;17.50;99.90;;;;;;5047286;28;20147;-69
2023/04/23 12:45:55;;;;;;;10.98;5.15;;;17.50;99.90;;;;;;5045942;28;20040;-66
2023/04/23 12:48:23;;;;;;;11.90;4.65;;;17.50;99.90;;;;;;5043197;28;20083;-70